首页
METAR-TAF:

METAR-TAF

机场 :

Enfidha-Hammamet

哈马马特, 突尼斯

纬度: 36-04-34N, 经度: 10-26-19E, 海拔: 6米

当前天气观测

该预报发布于42分钟前的09:00 UTC
风速6节,风向西
温度 13°C
湿度 72%
气压 1014 hPa
能见度10公里或以上
多云层高于5000英尺

METAR: DTNH 290900Z AUTO 27006KT 9999NDV BKN050 13/08 Q1014

时间: 10:42 (09:42 UTC)

预报

该预报发布于4小时和42分钟前的05:00 UTC
预报有效从29日的 06点(UTC)到 30日的 06点(UTC)
风速6节,风向北转西北
能见度10公里或以上
1500米以下无云,无积雨云
几率 40% :
短暂存在
从 29日的 09点(UTC)到 29日的 12点(UTC)
能見度: 4000
散云层高于2600英尺, 塔状积云.
小阵雨
几率 30% :
短暂存在
从 29日的 14点(UTC)到 29日的 18点(UTC)
风速35节,风向多变
能見度: 4000
少量云层高于2600英尺, 积雨云.

TAF: DTNH 290500Z 2906/3006 34006KT CAVOK PROB40 TEMPO 2909/2912 4000 -SHRA SCT026TCU PROB30 TEMPO 2914/2918 VRB35KT 4000 TSSHRA FEW026CB

超过4000个机场的气象观测和天气预报(METAR&TAF报告)。

可查询的气象台以黄色和红色小点在地图上表示。

将鼠标移到小点上方,可查看气象台名称。

然后点击查看天气观测和预报。

如需切换地图:点击带黑十字的绿色按钮放大地图;点击带横线的绿色按钮缩小地图;或者点击绿色箭头查看邻近地区的地图。


METAR-TAF: